sensor_id;sensor_type;location;lat;lon;timestamp;P1;durP1;ratioP1;P2;durP2;ratioP2
74064;SDS011;62421;51.412;5.432;2022-10-26T00:00:52;14.97;;;6.10;;
74064;SDS011;62421;51.412;5.432;2022-10-26T00:03:30;14.63;;;6.68;;
74064;SDS011;62421;51.412;5.432;2022-10-26T00:06:01;23.50;;;7.50;;
74064;SDS011;62421;51.412;5.432;2022-10-26T00:08:32;14.23;;;7.00;;
74064;SDS011;62421;51.412;5.432;2022-10-26T00:10:57;16.13;;;6.88;;
74064;SDS011;62421;51.412;5.432;2022-10-26T00:13:23;17.00;;;6.27;;
74064;SDS011;62421;51.412;5.432;2022-10-26T00:15:48;18.40;;;6.83;;
74064;SDS011;62421;51.412;5.432;2022-10-26T00:18:13;13.80;;;7.57;;
74064;SDS011;62421;51.412;5.432;2022-10-26T00:20:38;16.60;;;6.53;;
74064;SDS011;62421;51.412;5.432;2022-10-26T00:23:04;21.37;;;7.37;;
74064;SDS011;62421;51.412;5.432;2022-10-26T00:25:29;19.23;;;6.77;;
74064;SDS011;62421;51.412;5.432;2022-10-26T00:27:54;11.60;;;6.30;;
74064;SDS011;62421;51.412;5.432;2022-10-26T00:30:20;18.70;;;7.77;;
74064;SDS011;62421;51.412;5.432;2022-10-26T00:32:45;15.47;;;7.07;;
74064;SDS011;62421;51.412;5.432;2022-10-26T00:35:10;12.13;;;6.43;;
74064;SDS011;62421;51.412;5.432;2022-10-26T00:37:35;13.30;;;6.17;;
74064;SDS011;62421;51.412;5.432;2022-10-26T00:40:01;18.63;;;7.22;;
74064;SDS011;62421;51.412;5.432;2022-10-26T00:42:26;13.50;;;7.03;;
74064;SDS011;62421;51.412;5.432;2022-10-26T00:44:58;12.77;;;6.90;;
74064;SDS011;62421;51.412;5.432;2022-10-26T00:47:44;17.97;;;7.40;;
74064;SDS011;62421;51.412;5.432;2022-10-26T00:52:44;15.85;;;6.35;;
74064;SDS011;62421;51.412;5.432;2022-10-26T00:55:09;20.63;;;6.90;;
74064;SDS011;62421;51.412;5.432;2022-10-26T00:57:35;14.30;;;6.47;;
74064;SDS011;62421;51.412;5.432;2022-10-26T01:00:03;14.68;;;6.30;;
74064;SDS011;62421;51.412;5.432;2022-10-26T01:02:31;14.80;;;6.50;;
74064;SDS011;62421;51.412;5.432;2022-10-26T01:04:57;13.13;;;6.10;;
74064;SDS011;62421;51.412;5.432;2022-10-26T01:07:23;15.40;;;6.97;;
74064;SDS011;62421;51.412;5.432;2022-10-26T01:09:50;13.57;;;6.95;;
74064;SDS011;62421;51.412;5.432;2022-10-26T01:12:15;12.85;;;6.97;;
74064;SDS011;62421;51.412;5.432;2022-10-26T01:14:41;18.07;;;7.00;;
74064;SDS011;62421;51.412;5.432;2022-10-26T01:22:25;19.90;;;6.50;;
74064;SDS011;62421;51.412;5.432;2022-10-26T01:27:46;17.50;;;6.75;;
74064;SDS011;62421;51.412;5.432;2022-10-26T01:41:38;18.15;;;6.55;;
74064;SDS011;62421;51.412;5.432;2022-10-26T01:44:12;17.63;;;8.00;;
74064;SDS011;62421;51.412;5.432;2022-10-26T01:46:44;19.38;;;7.68;;
74064;SDS011;62421;51.412;5.432;2022-10-26T01:49:14;16.03;;;6.80;;
74064;SDS011;62421;51.412;5.432;2022-10-26T01:51:43;22.88;;;8.20;;
74064;SDS011;62421;51.412;5.432;2022-10-26T01:54:12;17.38;;;8.57;;
74064;SDS011;62421;51.412;5.432;2022-10-26T01:56:38;19.83;;;9.47;;
74064;SDS011;62421;51.412;5.432;2022-10-26T01:59:25;17.42;;;9.60;;
74064;SDS011;62421;51.412;5.432;2022-10-26T02:12:52;16.05;;;8.82;;
74064;SDS011;62421;51.412;5.432;2022-10-26T02:18:38;18.67;;;9.50;;
74064;SDS011;62421;51.412;5.432;2022-10-26T02:21:16;16.57;;;8.30;;
74064;SDS011;62421;51.412;5.432;2022-10-26T02:23:45;16.85;;;8.93;;
74064;SDS011;62421;51.412;5.432;2022-10-26T02:26:12;18.95;;;8.55;;
74064;SDS011;62421;51.412;5.432;2022-10-26T02:28:43;21.52;;;7.95;;
74064;SDS011;62421;51.412;5.432;2022-10-26T02:31:13;18.20;;;8.32;;
74064;SDS011;62421;51.412;5.432;2022-10-26T02:33:41;14.27;;;7.90;;
74064;SDS011;62421;51.412;5.432;2022-10-26T02:36:10;22.00;;;8.50;;
74064;SDS011;62421;51.412;5.432;2022-10-26T02:38:39;16.25;;;8.23;;
74064;SDS011;62421;51.412;5.432;2022-10-26T02:41:06;16.85;;;7.90;;
74064;SDS011;62421;51.412;5.432;2022-10-26T02:43:34;16.48;;;8.18;;
74064;SDS011;62421;51.412;5.432;2022-10-26T02:46:06;23.73;;;9.20;;
74064;SDS011;62421;51.412;5.432;2022-10-26T02:48:34;19.58;;;8.82;;
74064;SDS011;62421;51.412;5.432;2022-10-26T02:52:01;20.80;;;8.02;;
74064;SDS011;62421;51.412;5.432;2022-10-26T02:57:15;12.30;;;6.70;;
74064;SDS011;62421;51.412;5.432;2022-10-26T02:59:45;15.57;;;7.07;;
74064;SDS011;62421;51.412;5.432;2022-10-26T03:02:12;13.18;;;7.10;;
74064;SDS011;62421;51.412;5.432;2022-10-26T03:04:40;22.35;;;7.47;;
74064;SDS011;62421;51.412;5.432;2022-10-26T03:07:06;18.47;;;6.90;;
74064;SDS011;62421;51.412;5.432;2022-10-26T03:09:31;15.30;;;6.60;;
74064;SDS011;62421;51.412;5.432;2022-10-26T03:11:56;17.53;;;6.57;;
74064;SDS011;62421;51.412;5.432;2022-10-26T03:14:22;15.90;;;6.00;;
74064;SDS011;62421;51.412;5.432;2022-10-26T03:16:47;15.83;;;6.73;;
74064;SDS011;62421;51.412;5.432;2022-10-26T03:19:12;17.73;;;6.90;;
74064;SDS011;62421;51.412;5.432;2022-10-26T03:21:37;15.23;;;6.33;;
74064;SDS011;62421;51.412;5.432;2022-10-26T03:24:03;13.97;;;5.73;;
74064;SDS011;62421;51.412;5.432;2022-10-26T03:26:28;14.45;;;5.88;;
74064;SDS011;62421;51.412;5.432;2022-10-26T03:28:54;17.93;;;5.57;;
74064;SDS011;62421;51.412;5.432;2022-10-26T03:31:19;11.77;;;5.23;;
74064;SDS011;62421;51.412;5.432;2022-10-26T03:33:44;11.33;;;5.30;;
74064;SDS011;62421;51.412;5.432;2022-10-26T03:36:09;15.83;;;5.20;;
74064;SDS011;62421;51.412;5.432;2022-10-26T03:38:35;12.90;;;5.70;;
74064;SDS011;62421;51.412;5.432;2022-10-26T03:41:00;10.13;;;5.03;;
74064;SDS011;62421;51.412;5.432;2022-10-26T03:43:25;14.57;;;5.10;;
74064;SDS011;62421;51.412;5.432;2022-10-26T03:45:51;10.00;;;4.87;;
74064;SDS011;62421;51.412;5.432;2022-10-26T03:48:16;14.80;;;5.03;;
74064;SDS011;62421;51.412;5.432;2022-10-26T03:50:41;10.85;;;4.85;;
74064;SDS011;62421;51.412;5.432;2022-10-26T03:53:07;15.80;;;4.77;;
74064;SDS011;62421;51.412;5.432;2022-10-26T03:55:32;16.47;;;5.07;;
74064;SDS011;62421;51.412;5.432;2022-10-26T03:57:57;13.87;;;5.27;;
74064;SDS011;62421;51.412;5.432;2022-10-26T04:00:23;13.83;;;5.40;;
74064;SDS011;62421;51.412;5.432;2022-10-26T04:02:58;12.93;;;4.97;;
74064;SDS011;62421;51.412;5.432;2022-10-26T04:05:24;12.35;;;5.75;;
74064;SDS011;62421;51.412;5.432;2022-10-26T04:07:55;10.73;;;5.03;;
74064;SDS011;62421;51.412;5.432;2022-10-26T04:10:22;16.90;;;5.50;;
74064;SDS011;62421;51.412;5.432;2022-10-26T04:12:48;15.70;;;5.28;;
74064;SDS011;62421;51.412;5.432;2022-10-26T04:15:14;14.85;;;5.03;;
74064;SDS011;62421;51.412;5.432;2022-10-26T04:17:40;14.05;;;5.53;;
74064;SDS011;62421;51.412;5.432;2022-10-26T04:20:05;13.10;;;5.17;;
74064;SDS011;62421;51.412;5.432;2022-10-26T04:22:31;16.75;;;5.10;;
74064;SDS011;62421;51.412;5.432;2022-10-26T04:24:56;15.97;;;5.47;;
74064;SDS011;62421;51.412;5.432;2022-10-26T04:27:22;17.23;;;5.03;;
74064;SDS011;62421;51.412;5.432;2022-10-26T04:29:47;14.30;;;5.43;;
74064;SDS011;62421;51.412;5.432;2022-10-26T04:32:12;13.73;;;5.13;;
74064;SDS011;62421;51.412;5.432;2022-10-26T04:34:38;12.47;;;4.87;;
74064;SDS011;62421;51.412;5.432;2022-10-26T04:37:03;15.97;;;5.00;;
74064;SDS011;62421;51.412;5.432;2022-10-26T04:39:28;11.57;;;5.13;;
74064;SDS011;62421;51.412;5.432;2022-10-26T04:41:54;11.57;;;4.28;;
74064;SDS011;62421;51.412;5.432;2022-10-26T04:44:19;12.70;;;5.05;;
74064;SDS011;62421;51.412;5.432;2022-10-26T04:46:44;11.37;;;4.07;;
74064;SDS011;62421;51.412;5.432;2022-10-26T04:49:10;17.13;;;4.80;;
74064;SDS011;62421;51.412;5.432;2022-10-26T04:51:35;12.33;;;4.90;;
74064;SDS011;62421;51.412;5.432;2022-10-26T04:54:00;11.73;;;4.47;;
74064;SDS011;62421;51.412;5.432;2022-10-26T04:56:27;12.30;;;4.20;;
74064;SDS011;62421;51.412;5.432;2022-10-26T04:58:53;14.70;;;4.70;;
74064;SDS011;62421;51.412;5.432;2022-10-26T05:01:18;12.60;;;4.20;;
74064;SDS011;62421;51.412;5.432;2022-10-26T05:03:43;11.50;;;4.10;;
74064;SDS011;62421;51.412;5.432;2022-10-26T05:06:12;10.93;;;4.37;;
74064;SDS011;62421;51.412;5.432;2022-10-26T05:08:37;14.90;;;4.77;;
74064;SDS011;62421;51.412;5.432;2022-10-26T05:11:03;13.70;;;4.07;;
74064;SDS011;62421;51.412;5.432;2022-10-26T05:13:28;10.27;;;4.50;;
74064;SDS011;62421;51.412;5.432;2022-10-26T05:15:53;10.73;;;4.07;;
74064;SDS011;62421;51.412;5.432;2022-10-26T05:18:19;15.27;;;4.07;;
74064;SDS011;62421;51.412;5.432;2022-10-26T05:20:44;9.57;;;4.00;;
74064;SDS011;62421;51.412;5.432;2022-10-26T05:23:10;7.30;;;3.63;;
74064;SDS011;62421;51.412;5.432;2022-10-26T05:25:36;12.70;;;3.88;;
74064;SDS011;62421;51.412;5.432;2022-10-26T05:28:06;10.63;;;4.65;;
74064;SDS011;62421;51.412;5.432;2022-10-26T05:30:35;9.20;;;3.85;;
74064;SDS011;62421;51.412;5.432;2022-10-26T05:33:01;8.10;;;4.27;;
74064;SDS011;62421;51.412;5.432;2022-10-26T05:35:27;11.20;;;4.33;;
74064;SDS011;62421;51.412;5.432;2022-10-26T05:37:53;10.05;;;4.38;;
74064;SDS011;62421;51.412;5.432;2022-10-26T05:40:18;9.70;;;3.60;;
74064;SDS011;62421;51.412;5.432;2022-10-26T05:42:44;11.80;;;3.90;;
74064;SDS011;62421;51.412;5.432;2022-10-26T05:45:10;17.80;;;4.00;;
74064;SDS011;62421;51.412;5.432;2022-10-26T05:47:37;13.05;;;3.90;;
74064;SDS011;62421;51.412;5.432;2022-10-26T05:50:03;11.07;;;4.18;;
74064;SDS011;62421;51.412;5.432;2022-10-26T05:52:29;10.07;;;3.63;;
74064;SDS011;62421;51.412;5.432;2022-10-26T05:54:55;10.55;;;4.13;;
74064;SDS011;62421;51.412;5.432;2022-10-26T05:57:20;9.77;;;3.73;;
74064;SDS011;62421;51.412;5.432;2022-10-26T05:59:45;10.97;;;4.17;;
74064;SDS011;62421;51.412;5.432;2022-10-26T06:02:17;11.40;;;4.23;;
74064;SDS011;62421;51.412;5.432;2022-10-26T06:04:53;10.23;;;3.90;;
74064;SDS011;62421;51.412;5.432;2022-10-26T06:07:22;16.48;;;4.53;;
74064;SDS011;62421;51.412;5.432;2022-10-26T06:09:48;12.33;;;4.17;;
74064;SDS011;62421;51.412;5.432;2022-10-26T06:12:14;11.25;;;4.70;;
74064;SDS011;62421;51.412;5.432;2022-10-26T06:14:40;10.40;;;4.05;;
74064;SDS011;62421;51.412;5.432;2022-10-26T06:24:55;12.00;;;4.17;;
74064;SDS011;62421;51.412;5.432;2022-10-26T06:27:51;9.38;;;4.43;;
74064;SDS011;62421;51.412;5.432;2022-10-26T06:30:46;8.07;;;4.22;;
74064;SDS011;62421;51.412;5.432;2022-10-26T06:33:12;19.77;;;4.90;;
74064;SDS011;62421;51.412;5.432;2022-10-26T06:38:06;15.18;;;4.45;;
74064;SDS011;62421;51.412;5.432;2022-10-26T06:40:35;9.40;;;3.97;;
74064;SDS011;62421;51.412;5.432;2022-10-26T06:43:03;12.47;;;4.13;;
74064;SDS011;62421;51.412;5.432;2022-10-26T06:45:36;11.82;;;4.50;;
74064;SDS011;62421;51.412;5.432;2022-10-26T06:48:07;12.88;;;4.28;;
74064;SDS011;62421;51.412;5.432;2022-10-26T06:50:36;11.68;;;3.72;;
74064;SDS011;62421;51.412;5.432;2022-10-26T06:55:46;13.63;;;4.20;;
74064;SDS011;62421;51.412;5.432;2022-10-26T06:58:17;13.73;;;4.35;;
74064;SDS011;62421;51.412;5.432;2022-10-26T07:00:44;16.20;;;4.45;;
74064;SDS011;62421;51.412;5.432;2022-10-26T07:03:12;10.77;;;4.20;;
74064;SDS011;62421;51.412;5.432;2022-10-26T07:05:38;12.60;;;5.17;;
74064;SDS011;62421;51.412;5.432;2022-10-26T07:08:03;9.97;;;3.80;;
74064;SDS011;62421;51.412;5.432;2022-10-26T07:10:29;9.10;;;4.22;;
74064;SDS011;62421;51.412;5.432;2022-10-26T07:12:54;7.93;;;3.67;;
74064;SDS011;62421;51.412;5.432;2022-10-26T07:15:20;9.43;;;4.00;;
74064;SDS011;62421;51.412;5.432;2022-10-26T07:17:46;15.90;;;4.53;;
74064;SDS011;62421;51.412;5.432;2022-10-26T07:20:13;12.05;;;3.67;;
74064;SDS011;62421;51.412;5.432;2022-10-26T07:22:39;8.70;;;3.92;;
74064;SDS011;62421;51.412;5.432;2022-10-26T07:25:06;9.20;;;3.97;;
74064;SDS011;62421;51.412;5.432;2022-10-26T07:27:32;12.00;;;4.00;;
74064;SDS011;62421;51.412;5.432;2022-10-26T07:29:58;10.23;;;4.10;;
74064;SDS011;62421;51.412;5.432;2022-10-26T07:32:23;12.20;;;4.37;;
74064;SDS011;62421;51.412;5.432;2022-10-26T07:34:50;14.15;;;4.00;;
74064;SDS011;62421;51.412;5.432;2022-10-26T07:37:15;11.87;;;4.30;;
74064;SDS011;62421;51.412;5.432;2022-10-26T07:39:40;17.47;;;4.20;;
74064;SDS011;62421;51.412;5.432;2022-10-26T07:42:06;13.07;;;4.40;;
74064;SDS011;62421;51.412;5.432;2022-10-26T07:44:31;11.23;;;4.03;;
74064;SDS011;62421;51.412;5.432;2022-10-26T07:46:56;11.57;;;4.40;;
74064;SDS011;62421;51.412;5.432;2022-10-26T07:49:22;16.83;;;4.20;;
74064;SDS011;62421;51.412;5.432;2022-10-26T07:51:47;13.17;;;5.20;;
74064;SDS011;62421;51.412;5.432;2022-10-26T07:54:13;11.10;;;4.70;;
74064;SDS011;62421;51.412;5.432;2022-10-26T07:56:38;17.80;;;5.50;;
74064;SDS011;62421;51.412;5.432;2022-10-26T07:59:03;15.40;;;5.63;;
74064;SDS011;62421;51.412;5.432;2022-10-26T08:01:29;12.40;;;4.80;;
74064;SDS011;62421;51.412;5.432;2022-10-26T08:03:54;9.00;;;4.93;;
74064;SDS011;62421;51.412;5.432;2022-10-26T08:06:20;12.10;;;4.93;;
74064;SDS011;62421;51.412;5.432;2022-10-26T08:08:46;13.25;;;5.03;;
74064;SDS011;62421;51.412;5.432;2022-10-26T08:11:12;14.25;;;5.47;;
74064;SDS011;62421;51.412;5.432;2022-10-26T08:13:38;15.17;;;5.23;;
74064;SDS011;62421;51.412;5.432;2022-10-26T08:16:04;11.90;;;5.17;;
74064;SDS011;62421;51.412;5.432;2022-10-26T08:18:30;16.35;;;5.43;;
74064;SDS011;62421;51.412;5.432;2022-10-26T08:21:00;14.55;;;5.63;;
74064;SDS011;62421;51.412;5.432;2022-10-26T08:23:27;16.20;;;5.20;;
74064;SDS011;62421;51.412;5.432;2022-10-26T08:25:56;12.47;;;4.30;;
74064;SDS011;62421;51.412;5.432;2022-10-26T08:28:22;10.80;;;4.53;;
74064;SDS011;62421;51.412;5.432;2022-10-26T08:30:48;10.33;;;4.33;;
74064;SDS011;62421;51.412;5.432;2022-10-26T08:33:13;11.97;;;3.87;;
74064;SDS011;62421;51.412;5.432;2022-10-26T08:35:38;11.37;;;3.83;;
74064;SDS011;62421;51.412;5.432;2022-10-26T08:38:04;12.90;;;4.30;;
74064;SDS011;62421;51.412;5.432;2022-10-26T08:40:30;14.77;;;4.67;;
74064;SDS011;62421;51.412;5.432;2022-10-26T08:43:32;11.65;;;4.07;;
74064;SDS011;62421;51.412;5.432;2022-10-26T08:48:35;8.67;;;3.60;;
74064;SDS011;62421;51.412;5.432;2022-10-26T08:51:07;12.20;;;3.95;;
74064;SDS011;62421;51.412;5.432;2022-10-26T08:56:24;13.63;;;3.33;;
74064;SDS011;62421;51.412;5.432;2022-10-26T09:01:30;13.30;;;4.13;;
74064;SDS011;62421;51.412;5.432;2022-10-26T09:03:57;11.20;;;3.35;;
74064;SDS011;62421;51.412;5.432;2022-10-26T09:17:02;8.05;;;3.03;;
74064;SDS011;62421;51.412;5.432;2022-10-26T09:22:23;6.68;;;2.95;;
74064;SDS011;62421;51.412;5.432;2022-10-26T09:24:54;6.93;;;3.15;;
74064;SDS011;62421;51.412;5.432;2022-10-26T09:27:25;18.23;;;3.43;;
74064;SDS011;62421;51.412;5.432;2022-10-26T09:29:53;8.75;;;2.83;;
74064;SDS011;62421;51.412;5.432;2022-10-26T09:32:25;10.15;;;3.15;;
74064;SDS011;62421;51.412;5.432;2022-10-26T09:35:00;13.20;;;3.38;;
74064;SDS011;62421;51.412;5.432;2022-10-26T09:37:36;8.32;;;3.30;;
74064;SDS011;62421;51.412;5.432;2022-10-26T09:42:40;11.40;;;2.88;;
74064;SDS011;62421;51.412;5.432;2022-10-26T09:45:21;11.52;;;3.22;;
74064;SDS011;62421;51.412;5.432;2022-10-26T09:47:52;8.25;;;2.92;;
74064;SDS011;62421;51.412;5.432;2022-10-26T09:50:33;7.70;;;2.63;;
74064;SDS011;62421;51.412;5.432;2022-10-26T09:53:01;11.67;;;3.03;;
74064;SDS011;62421;51.412;5.432;2022-10-26T09:55:27;13.90;;;3.55;;
74064;SDS011;62421;51.412;5.432;2022-10-26T09:57:55;10.88;;;3.08;;
74064;SDS011;62421;51.412;5.432;2022-10-26T10:00:24;14.40;;;2.97;;
74064;SDS011;62421;51.412;5.432;2022-10-26T10:02:51;11.88;;;2.65;;
74064;SDS011;62421;51.412;5.432;2022-10-26T10:05:31;9.83;;;2.70;;
74064;SDS011;62421;51.412;5.432;2022-10-26T10:08:14;8.40;;;2.78;;
74064;SDS011;62421;51.412;5.432;2022-10-26T10:10:57;10.85;;;2.67;;
74064;SDS011;62421;51.412;5.432;2022-10-26T10:13:40;12.68;;;3.10;;
74064;SDS011;62421;51.412;5.432;2022-10-26T10:18:32;16.23;;;3.50;;
74064;SDS011;62421;51.412;5.432;2022-10-26T10:20:59;8.13;;;2.63;;
74064;SDS011;62421;51.412;5.432;2022-10-26T10:23:26;13.00;;;2.88;;
74064;SDS011;62421;51.412;5.432;2022-10-26T10:28:26;9.65;;;2.90;;
74064;SDS011;62421;51.412;5.432;2022-10-26T10:30:53;11.47;;;2.90;;
74064;SDS011;62421;51.412;5.432;2022-10-26T10:33:21;10.00;;;2.50;;
74064;SDS011;62421;51.412;5.432;2022-10-26T10:35:48;7.88;;;2.78;;
74064;SDS011;62421;51.412;5.432;2022-10-26T10:38:16;14.23;;;2.30;;
74064;SDS011;62421;51.412;5.432;2022-10-26T10:40:48;11.10;;;2.20;;
74064;SDS011;62421;51.412;5.432;2022-10-26T10:43:15;8.95;;;2.20;;
74064;SDS011;62421;51.412;5.432;2022-10-26T10:45:44;5.17;;;2.10;;
74064;SDS011;62421;51.412;5.432;2022-10-26T10:50:52;6.78;;;2.17;;
74064;SDS011;62421;51.412;5.432;2022-10-26T10:53:36;9.00;;;2.38;;
74064;SDS011;62421;51.412;5.432;2022-10-26T11:07:53;20.92;;;2.42;;
74064;SDS011;62421;51.412;5.432;2022-10-26T11:10:23;8.98;;;2.47;;
74064;SDS011;62421;51.412;5.432;2022-10-26T11:12:53;14.27;;;2.57;;
74064;SDS011;62421;51.412;5.432;2022-10-26T11:15:24;7.05;;;1.80;;
74064;SDS011;62421;51.412;5.432;2022-10-26T11:20:36;6.47;;;1.80;;
74064;SDS011;62421;51.412;5.432;2022-10-26T11:23:11;10.48;;;2.45;;
74064;SDS011;62421;51.412;5.432;2022-10-26T11:25:47;7.50;;;2.63;;
74064;SDS011;62421;51.412;5.432;2022-10-26T11:31:15;9.48;;;1.90;;
74064;SDS011;62421;51.412;5.432;2022-10-26T11:33:47;10.90;;;2.30;;
74064;SDS011;62421;51.412;5.432;2022-10-26T11:36:27;7.07;;;2.53;;
74064;SDS011;62421;51.412;5.432;2022-10-26T11:38:58;6.97;;;1.80;;
74064;SDS011;62421;51.412;5.432;2022-10-26T11:46:36;7.97;;;2.17;;
74064;SDS011;62421;51.412;5.432;2022-10-26T11:49:16;8.82;;;2.00;;
74064;SDS011;62421;51.412;5.432;2022-10-26T11:51:52;8.53;;;2.00;;
74064;SDS011;62421;51.412;5.432;2022-10-26T11:54:23;9.95;;;1.98;;
74064;SDS011;62421;51.412;5.432;2022-10-26T11:56:55;7.55;;;1.80;;
74064;SDS011;62421;51.412;5.432;2022-10-26T11:59:23;8.48;;;2.17;;
74064;SDS011;62421;51.412;5.432;2022-10-26T12:01:53;9.95;;;2.20;;
74064;SDS011;62421;51.412;5.432;2022-10-26T12:04:25;8.00;;;1.77;;
74064;SDS011;62421;51.412;5.432;2022-10-26T12:06:54;6.63;;;1.60;;
74064;SDS011;62421;51.412;5.432;2022-10-26T12:09:23;8.90;;;2.03;;
74064;SDS011;62421;51.412;5.432;2022-10-26T12:11:59;7.13;;;1.90;;
74064;SDS011;62421;51.412;5.432;2022-10-26T12:22:52;11.55;;;2.50;;
74064;SDS011;62421;51.412;5.432;2022-10-26T12:25:19;10.70;;;2.27;;
74064;SDS011;62421;51.412;5.432;2022-10-26T12:35:28;13.83;;;1.90;;
74064;SDS011;62421;51.412;5.432;2022-10-26T12:37:57;13.68;;;1.77;;
74064;SDS011;62421;51.412;5.432;2022-10-26T12:42:54;9.23;;;1.80;;
74064;SDS011;62421;51.412;5.432;2022-10-26T12:45:21;8.18;;;1.80;;
74064;SDS011;62421;51.412;5.432;2022-10-26T13:09:22;11.43;;;1.98;;
74064;SDS011;62421;51.412;5.432;2022-10-26T13:11:51;16.43;;;2.03;;
74064;SDS011;62421;51.412;5.432;2022-10-26T13:14:20;8.88;;;2.22;;
74064;SDS011;62421;51.412;5.432;2022-10-26T13:16:49;5.43;;;1.60;;
74064;SDS011;62421;51.412;5.432;2022-10-26T13:19:48;6.07;;;1.50;;
74064;SDS011;62421;51.412;5.432;2022-10-26T13:22:15;6.55;;;1.42;;
74064;SDS011;62421;51.412;5.432;2022-10-26T13:24:50;9.43;;;1.40;;
74064;SDS011;62421;51.412;5.432;2022-10-26T13:32:27;7.68;;;1.50;;
74064;SDS011;62421;51.412;5.432;2022-10-26T13:34:55;12.40;;;1.90;;
74064;SDS011;62421;51.412;5.432;2022-10-26T13:37:24;5.28;;;1.95;;
74064;SDS011;62421;51.412;5.432;2022-10-26T13:39:53;7.95;;;1.52;;
74064;SDS011;62421;51.412;5.432;2022-10-26T13:42:43;14.68;;;1.98;;
74064;SDS011;62421;51.412;5.432;2022-10-26T13:45:14;5.18;;;1.52;;
74064;SDS011;62421;51.412;5.432;2022-10-26T13:48:03;8.83;;;1.13;;
74064;SDS011;62421;51.412;5.432;2022-10-26T13:50:39;9.90;;;1.92;;
74064;SDS011;62421;51.412;5.432;2022-10-26T13:53:56;7.78;;;1.60;;
74064;SDS011;62421;51.412;5.432;2022-10-26T13:58:40;10.75;;;1.92;;
74064;SDS011;62421;51.412;5.432;2022-10-26T14:03:34;11.00;;;1.90;;
74064;SDS011;62421;51.412;5.432;2022-10-26T14:06:02;6.05;;;1.67;;
74064;SDS011;62421;51.412;5.432;2022-10-26T14:08:40;7.18;;;1.33;;
74064;SDS011;62421;51.412;5.432;2022-10-26T14:11:08;3.80;;;1.20;;
74064;SDS011;62421;51.412;5.432;2022-10-26T14:13:37;18.63;;;2.63;;
74064;SDS011;62421;51.412;5.432;2022-10-26T14:16:05;6.97;;;1.40;;
74064;SDS011;62421;51.412;5.432;2022-10-26T14:18:31;9.57;;;1.50;;
74064;SDS011;62421;51.412;5.432;2022-10-26T14:21:01;10.27;;;1.90;;
74064;SDS011;62421;51.412;5.432;2022-10-26T14:23:33;8.02;;;1.70;;
74064;SDS011;62421;51.412;5.432;2022-10-26T14:26:01;12.10;;;1.70;;
74064;SDS011;62421;51.412;5.432;2022-10-26T14:28:28;8.35;;;1.67;;
74064;SDS011;62421;51.412;5.432;2022-10-26T14:33:47;19.13;;;1.80;;
74064;SDS011;62421;51.412;5.432;2022-10-26T14:36:13;8.50;;;1.53;;
74064;SDS011;62421;51.412;5.432;2022-10-26T14:38:46;7.13;;;1.52;;
74064;SDS011;62421;51.412;5.432;2022-10-26T14:41:16;12.13;;;2.03;;
74064;SDS011;62421;51.412;5.432;2022-10-26T14:43:42;8.05;;;1.90;;
74064;SDS011;62421;51.412;5.432;2022-10-26T14:46:15;16.63;;;2.00;;
74064;SDS011;62421;51.412;5.432;2022-10-26T14:48:50;8.18;;;1.73;;
74064;SDS011;62421;51.412;5.432;2022-10-26T14:51:18;9.10;;;2.22;;
74064;SDS011;62421;51.412;5.432;2022-10-26T14:53:48;8.38;;;1.58;;
74064;SDS011;62421;51.412;5.432;2022-10-26T14:56:17;8.98;;;1.77;;
74064;SDS011;62421;51.412;5.432;2022-10-26T14:58:46;9.80;;;1.53;;
74064;SDS011;62421;51.412;5.432;2022-10-26T15:01:44;7.03;;;2.38;;
74064;SDS011;62421;51.412;5.432;2022-10-26T15:04:05;9.73;;;1.75;;
74064;SDS011;62421;51.412;5.432;2022-10-26T15:06:32;10.02;;;1.95;;
74064;SDS011;62421;51.412;5.432;2022-10-26T15:09:02;7.85;;;1.70;;
74064;SDS011;62421;51.412;5.432;2022-10-26T15:11:30;5.93;;;1.80;;
74064;SDS011;62421;51.412;5.432;2022-10-26T15:13:57;8.90;;;1.50;;
74064;SDS011;62421;51.412;5.432;2022-10-26T15:16:24;12.23;;;2.30;;
74064;SDS011;62421;51.412;5.432;2022-10-26T15:18:58;6.33;;;1.60;;
74064;SDS011;62421;51.412;5.432;2022-10-26T15:21:32;14.50;;;2.28;;
74064;SDS011;62421;51.412;5.432;2022-10-26T15:24:00;11.68;;;1.83;;
74064;SDS011;62421;51.412;5.432;2022-10-26T15:26:27;6.93;;;1.50;;
74064;SDS011;62421;51.412;5.432;2022-10-26T15:28:53;7.05;;;1.45;;
74064;SDS011;62421;51.412;5.432;2022-10-26T15:36:16;6.20;;;1.70;;
74064;SDS011;62421;51.412;5.432;2022-10-26T15:38:46;5.60;;;1.30;;
74064;SDS011;62421;51.412;5.432;2022-10-26T15:41:13;5.80;;;1.77;;
74064;SDS011;62421;51.412;5.432;2022-10-26T15:43:45;6.20;;;1.90;;
74064;SDS011;62421;51.412;5.432;2022-10-26T15:46:11;9.73;;;1.83;;
74064;SDS011;62421;51.412;5.432;2022-10-26T15:48:37;9.40;;;1.55;;
74064;SDS011;62421;51.412;5.432;2022-10-26T15:51:04;8.73;;;1.63;;
74064;SDS011;62421;51.412;5.432;2022-10-26T15:53:30;11.13;;;1.85;;
74064;SDS011;62421;51.412;5.432;2022-10-26T15:55:56;11.10;;;2.37;;
74064;SDS011;62421;51.412;5.432;2022-10-26T15:58:23;9.07;;;1.58;;
74064;SDS011;62421;51.412;5.432;2022-10-26T16:00:49;8.52;;;1.58;;
74064;SDS011;62421;51.412;5.432;2022-10-26T16:03:15;10.20;;;1.80;;
74064;SDS011;62421;51.412;5.432;2022-10-26T16:05:44;6.93;;;1.45;;
74064;SDS011;62421;51.412;5.432;2022-10-26T16:08:13;12.03;;;1.83;;
74064;SDS011;62421;51.412;5.432;2022-10-26T16:10:41;8.48;;;1.70;;
74064;SDS011;62421;51.412;5.432;2022-10-26T16:13:11;5.32;;;1.85;;
74064;SDS011;62421;51.412;5.432;2022-10-26T16:15:37;10.93;;;1.90;;
74064;SDS011;62421;51.412;5.432;2022-10-26T16:18:02;5.07;;;1.70;;
74064;SDS011;62421;51.412;5.432;2022-10-26T16:20:28;5.93;;;1.70;;
74064;SDS011;62421;51.412;5.432;2022-10-26T16:22:54;5.57;;;1.33;;
74064;SDS011;62421;51.412;5.432;2022-10-26T16:25:20;8.97;;;1.57;;
74064;SDS011;62421;51.412;5.432;2022-10-26T16:27:48;6.85;;;1.60;;
74064;SDS011;62421;51.412;5.432;2022-10-26T16:30:15;7.30;;;1.73;;
74064;SDS011;62421;51.412;5.432;2022-10-26T16:32:41;7.78;;;2.03;;
74064;SDS011;62421;51.412;5.432;2022-10-26T16:35:06;7.13;;;1.67;;
74064;SDS011;62421;51.412;5.432;2022-10-26T16:37:33;8.65;;;2.10;;
74064;SDS011;62421;51.412;5.432;2022-10-26T16:39:58;7.32;;;1.60;;
74064;SDS011;62421;51.412;5.432;2022-10-26T16:42:23;7.50;;;2.10;;
74064;SDS011;62421;51.412;5.432;2022-10-26T16:44:49;7.93;;;1.63;;
74064;SDS011;62421;51.412;5.432;2022-10-26T16:47:15;8.05;;;1.63;;
74064;SDS011;62421;51.412;5.432;2022-10-26T16:49:40;12.40;;;2.20;;
74064;SDS011;62421;51.412;5.432;2022-10-26T16:52:07;8.77;;;1.93;;
74064;SDS011;62421;51.412;5.432;2022-10-26T16:54:33;6.40;;;1.83;;
74064;SDS011;62421;51.412;5.432;2022-10-26T16:56:59;7.17;;;1.70;;
74064;SDS011;62421;51.412;5.432;2022-10-26T16:59:24;6.57;;;1.80;;
74064;SDS011;62421;51.412;5.432;2022-10-26T17:01:49;6.17;;;1.73;;
74064;SDS011;62421;51.412;5.432;2022-10-26T17:04:15;9.63;;;1.63;;
74064;SDS011;62421;51.412;5.432;2022-10-26T17:06:40;8.32;;;2.28;;
74064;SDS011;62421;51.412;5.432;2022-10-26T17:09:05;8.43;;;1.98;;
74064;SDS011;62421;51.412;5.432;2022-10-26T17:11:30;10.30;;;2.37;;
74064;SDS011;62421;51.412;5.432;2022-10-26T17:13:56;6.47;;;1.60;;
74064;SDS011;62421;51.412;5.432;2022-10-26T17:16:22;5.90;;;2.27;;
74064;SDS011;62421;51.412;5.432;2022-10-26T17:18:48;8.57;;;2.30;;
74064;SDS011;62421;51.412;5.432;2022-10-26T17:21:18;7.45;;;1.80;;
74064;SDS011;62421;51.412;5.432;2022-10-26T17:23:51;11.63;;;2.40;;
74064;SDS011;62421;51.412;5.432;2022-10-26T17:26:16;11.65;;;1.95;;
74064;SDS011;62421;51.412;5.432;2022-10-26T17:28:41;9.73;;;2.30;;
74064;SDS011;62421;51.412;5.432;2022-10-26T17:31:08;11.60;;;2.50;;